createdAt,value
2023-04-05T00:01:37.938Z,51.30
2023-04-05T00:04:08.854Z,51.50
2023-04-05T00:06:39.928Z,51.40
2023-04-05T00:09:09.010Z,51.30
2023-04-05T00:11:38.182Z,51.40
2023-04-05T00:14:07.727Z,51.50
2023-04-05T00:16:37.069Z,51.40
2023-04-05T00:19:06.304Z,51.40
2023-04-05T00:21:39.203Z,51.40
2023-04-05T00:24:15.313Z,51.70
2023-04-05T00:26:45.059Z,51.70
2023-04-05T00:29:14.279Z,51.70
2023-04-05T00:31:43.582Z,51.70
2023-04-05T00:34:12.703Z,51.80
2023-04-05T00:36:43.212Z,51.80
2023-04-05T00:39:12.600Z,51.90
2023-04-05T00:41:41.763Z,52.10
2023-04-05T00:44:12.902Z,52.00
2023-04-05T00:46:42.351Z,52.10
2023-04-05T00:49:12.419Z,52.30
2023-04-05T00:51:43.556Z,52.30
2023-04-05T00:54:14.087Z,52.30
2023-04-05T00:56:43.272Z,52.20
2023-04-05T00:59:12.599Z,52.30
2023-04-05T01:01:42.612Z,52.50
2023-04-05T01:04:14.107Z,52.60
2023-04-05T01:07:06.125Z,52.70
2023-04-05T01:09:46.645Z,52.70
2023-04-05T01:12:19.428Z,52.60
2023-04-05T01:14:50.989Z,52.60
2023-04-05T01:17:22.770Z,52.50
2023-04-05T01:19:54.503Z,52.70
2023-04-05T01:22:55.482Z,52.80
2023-04-05T01:25:52.033Z,52.80
2023-04-05T01:28:48.801Z,52.80
2023-04-05T01:31:27.521Z,52.60
2023-04-05T01:34:02.900Z,52.80
2023-04-05T01:36:35.488Z,52.90
2023-04-05T01:39:06.750Z,52.90
2023-04-05T01:41:36.296Z,52.90
2023-04-05T01:44:05.651Z,52.90
2023-04-05T01:46:36.611Z,52.80
2023-04-05T01:49:06.146Z,52.90
2023-04-05T01:51:35.226Z,52.90
2023-04-05T01:54:04.322Z,53.00
2023-04-05T01:56:33.699Z,53.00
2023-04-05T01:59:03.169Z,53.00
2023-04-05T02:01:33.930Z,53.30
2023-04-05T02:04:04.451Z,53.40
2023-04-05T02:06:33.626Z,53.40
2023-04-05T02:09:04.445Z,53.50
2023-04-05T02:11:33.490Z,53.70
2023-04-05T02:14:02.599Z,53.90
2023-04-05T02:16:33.312Z,53.80
2023-04-05T02:19:04.164Z,53.90
2023-04-05T02:21:40.816Z,54.00
2023-04-05T02:24:10.131Z,54.10
2023-04-05T02:26:40.942Z,54.10
2023-04-05T02:29:10.582Z,54.20
2023-04-05T02:31:39.795Z,54.10
2023-04-05T02:34:11.693Z,54.00
2023-04-05T02:36:41.869Z,54.10
2023-04-05T02:39:11.118Z,54.00
2023-04-05T02:41:40.805Z,54.00
2023-04-05T02:44:12.937Z,54.60
2023-04-05T02:46:42.313Z,54.10
2023-04-05T02:49:12.807Z,54.20
2023-04-05T02:51:41.988Z,54.20
2023-04-05T02:54:12.627Z,54.10
2023-04-05T02:56:43.514Z,54.70
2023-04-05T02:59:17.587Z,54.10
2023-04-05T03:01:48.225Z,54.10
2023-04-05T03:04:27.812Z,54.20
2023-04-05T03:07:03.645Z,54.40
2023-04-05T03:09:38.578Z,54.50
2023-04-05T03:12:10.664Z,54.50
2023-04-05T03:14:43.524Z,54.60
2023-04-05T03:17:16.228Z,54.50
2023-04-05T03:19:51.574Z,54.50
2023-04-05T03:22:25.674Z,54.40
2023-04-05T03:24:54.990Z,54.40
2023-04-05T03:27:24.688Z,54.40
2023-04-05T03:30:10.275Z,54.30
2023-04-05T03:32:46.267Z,54.40
2023-04-05T03:35:40.069Z,54.50
2023-04-05T03:38:11.902Z,54.60
2023-04-05T03:40:48.995Z,54.60
2023-04-05T03:43:18.000Z,54.60
2023-04-05T03:45:46.995Z,54.50
2023-04-05T03:48:20.055Z,54.50
2023-04-05T03:50:52.424Z,54.50
2023-04-05T03:53:23.468Z,54.50
2023-04-05T03:55:56.372Z,54.70
2023-04-05T03:58:41.747Z,54.70
2023-04-05T04:01:12.480Z,54.70
2023-04-05T04:03:42.029Z,54.90
2023-04-05T04:06:12.718Z,55.00
2023-04-05T04:08:42.160Z,55.10
2023-04-05T04:11:11.761Z,55.20
2023-04-05T04:13:42.516Z,55.20
2023-04-05T04:16:28.215Z,55.30
2023-04-05T04:18:57.957Z,55.20
2023-04-05T04:21:59.670Z,55.30
2023-04-05T04:24:34.354Z,55.30
2023-04-05T04:27:14.369Z,55.30
2023-04-05T04:30:04.009Z,55.40
2023-04-05T04:32:56.466Z,55.30
2023-04-05T04:35:39.729Z,55.30
2023-04-05T04:38:30.758Z,55.20
2023-04-05T04:41:29.190Z,55.30
2023-04-05T04:44:14.842Z,55.20
2023-04-05T04:47:13.759Z,55.40
2023-04-05T04:50:00.948Z,55.40
2023-04-05T04:52:31.393Z,55.90
2023-04-05T04:55:02.647Z,55.30
2023-04-05T04:57:31.848Z,55.30
2023-04-05T05:00:01.463Z,55.30
2023-04-05T05:02:31.488Z,55.20
2023-04-05T05:05:00.696Z,55.20
2023-04-05T05:07:30.432Z,55.20
2023-04-05T05:10:00.957Z,55.30
2023-04-05T05:12:31.416Z,55.40
2023-04-05T05:15:00.632Z,55.40
2023-04-05T05:17:29.783Z,55.40
2023-04-05T05:20:00.238Z,55.50
2023-04-05T05:22:29.487Z,55.40
2023-04-05T05:24:58.738Z,55.40
2023-04-05T05:27:29.736Z,55.50
2023-04-05T05:29:58.879Z,56.10
2023-04-05T05:32:28.194Z,55.60
2023-04-05T05:34:57.528Z,55.70
2023-04-05T05:37:31.574Z,55.60
2023-04-05T05:40:01.299Z,55.70
2023-04-05T05:42:32.510Z,55.60
2023-04-05T05:45:04.931Z,56.20
2023-04-05T05:47:34.157Z,56.20
2023-04-05T05:50:03.610Z,55.60
2023-04-05T05:52:32.785Z,55.60
2023-04-05T05:55:02.019Z,55.60
2023-04-05T05:57:33.171Z,55.70
2023-04-05T06:00:02.238Z,55.80
2023-04-05T06:02:41.283Z,55.90
2023-04-05T06:05:10.832Z,55.90
2023-04-05T06:07:39.946Z,55.90
2023-04-05T06:10:10.436Z,56.10
2023-04-05T06:12:40.938Z,56.10
2023-04-05T06:15:11.187Z,56.10
2023-04-05T06:17:42.762Z,56.10
2023-04-05T06:20:12.627Z,56.00
2023-04-05T06:22:41.973Z,55.90
2023-04-05T06:25:12.989Z,55.90
2023-04-05T06:27:43.635Z,56.00
2023-04-05T06:30:13.957Z,56.00
2023-04-05T06:32:43.210Z,56.00
2023-04-05T06:35:13.721Z,55.90
2023-04-05T06:37:42.959Z,56.00
2023-04-05T06:40:12.807Z,56.10
2023-04-05T06:42:43.553Z,56.00
2023-04-05T06:45:19.142Z,55.90
2023-04-05T06:47:48.423Z,55.90
2023-04-05T06:50:17.687Z,55.90
2023-04-05T06:52:46.797Z,56.00
2023-04-05T06:55:16.204Z,55.80
2023-04-05T06:57:46.868Z,55.60
2023-04-05T07:00:17.505Z,55.40
2023-04-05T07:02:46.765Z,55.30
2023-04-05T07:05:16.293Z,55.00
2023-04-05T07:07:48.126Z,54.90
2023-04-05T07:10:17.538Z,54.60
2023-04-05T07:12:47.926Z,54.60
2023-04-05T07:15:17.250Z,54.50
2023-04-05T07:17:46.372Z,54.30
2023-04-05T07:20:16.389Z,54.20
2023-04-05T07:22:45.636Z,54.10
2023-04-05T07:25:15.265Z,54.10
2023-04-05T07:27:44.323Z,54.00
2023-04-05T07:30:15.624Z,53.60
2023-04-05T07:32:44.742Z,53.20
2023-04-05T07:35:14.169Z,53.20
2023-04-05T07:37:43.466Z,53.00
2023-04-05T07:40:13.503Z,52.80
2023-04-05T07:42:42.698Z,52.90
2023-04-05T07:45:13.946Z,52.50
2023-04-05T07:47:43.100Z,51.80
2023-04-05T07:50:15.172Z,50.90
2023-04-05T07:52:44.779Z,50.50
2023-04-05T07:55:14.172Z,49.90
2023-04-05T07:57:43.187Z,49.90
2023-04-05T08:00:15.754Z,49.70
2023-04-05T08:02:44.953Z,49.70
2023-04-05T08:05:14.066Z,49.20
2023-04-05T08:07:43.156Z,48.70
2023-04-05T08:10:12.580Z,48.10
2023-04-05T08:12:41.730Z,48.20
2023-04-05T08:15:11.612Z,48.00
2023-04-05T08:17:42.251Z,47.90
2023-04-05T08:20:12.605Z,47.10
2023-04-05T08:22:41.746Z,47.00
2023-04-05T08:25:11.537Z,47.20
2023-04-05T08:27:41.395Z,47.00
2023-04-05T08:30:11.720Z,46.80
2023-04-05T08:32:42.237Z,46.70
2023-04-05T08:35:11.682Z,47.20
2023-04-05T08:37:40.874Z,46.60
2023-04-05T08:40:10.982Z,46.40
2023-04-05T08:42:47.546Z,46.00
2023-04-05T08:45:19.735Z,45.00
2023-04-05T08:47:53.501Z,45.60
2023-04-05T08:50:24.481Z,45.40
2023-04-05T08:52:53.773Z,45.00
2023-04-05T08:55:23.073Z,44.70
2023-04-05T08:57:55.150Z,44.50
2023-04-05T09:00:24.839Z,44.50
2023-04-05T09:02:58.099Z,44.90
2023-04-05T09:05:27.843Z,44.20
2023-04-05T09:07:59.030Z,43.60
2023-04-05T09:10:28.983Z,42.80
2023-04-05T09:12:58.675Z,42.50
2023-04-05T09:15:28.169Z,41.80
2023-04-05T09:17:58.877Z,42.60
2023-04-05T09:20:27.994Z,42.80
2023-04-05T09:22:57.975Z,43.00
2023-04-05T09:25:39.532Z,42.70
2023-04-05T09:28:09.655Z,42.60
2023-04-05T09:30:38.984Z,42.90
2023-04-05T09:33:16.426Z,42.50
2023-04-05T09:35:46.011Z,42.50
2023-04-05T09:38:15.152Z,42.30
2023-04-05T09:40:46.211Z,42.10
2023-04-05T09:43:38.562Z,42.10
2023-04-05T09:46:08.183Z,41.80
2023-04-05T09:48:49.190Z,41.80
2023-04-05T09:51:19.533Z,41.30
2023-04-05T09:53:59.913Z,41.10
2023-04-05T09:56:31.138Z,43.20
2023-04-05T09:59:02.311Z,42.80
2023-04-05T10:01:34.976Z,42.10
2023-04-05T10:04:06.209Z,41.90
2023-04-05T10:06:39.315Z,41.70
2023-04-05T10:09:09.840Z,41.40
2023-04-05T10:11:39.919Z,41.10
2023-04-05T10:14:10.150Z,40.70
2023-04-05T10:16:44.805Z,40.70
2023-04-05T10:19:25.702Z,40.60
2023-04-05T10:21:55.953Z,40.50
2023-04-05T10:24:36.647Z,40.60
2023-04-05T10:27:10.074Z,41.60
2023-04-05T10:29:49.279Z,41.90
2023-04-05T10:32:28.551Z,40.90
2023-04-05T10:35:08.057Z,41.00
2023-04-05T10:37:44.588Z,41.30
2023-04-05T10:40:15.459Z,41.60
2023-04-05T10:42:45.028Z,41.60
2023-04-05T10:45:18.024Z,40.70
2023-04-05T10:47:51.439Z,40.00
2023-04-05T10:50:24.398Z,39.60
2023-04-05T10:52:54.116Z,38.80
2023-04-05T10:55:24.056Z,39.10
2023-04-05T10:57:55.607Z,38.50
2023-04-05T11:00:25.728Z,38.60
2023-04-05T11:02:57.212Z,39.70
2023-04-05T11:05:34.087Z,40.30
2023-04-05T11:08:08.044Z,40.80
2023-04-05T11:10:39.041Z,40.90
2023-04-05T11:13:14.292Z,39.80
2023-04-05T11:15:43.381Z,38.40
2023-04-05T11:18:13.799Z,38.70
2023-04-05T11:20:51.627Z,39.30
2023-04-05T11:23:23.073Z,39.90
2023-04-05T11:25:54.553Z,38.80
2023-04-05T11:28:24.768Z,38.90
2023-04-05T11:30:57.349Z,38.60
2023-04-05T11:33:40.602Z,38.00
2023-04-05T11:36:13.153Z,37.10
2023-04-05T11:38:45.095Z,37.50
2023-04-05T11:41:17.661Z,36.70
2023-04-05T11:43:47.844Z,36.30
2023-04-05T11:46:17.119Z,36.40
2023-04-05T11:48:51.011Z,36.70
2023-04-05T11:51:23.286Z,36.10
2023-04-05T11:53:52.171Z,37.90
2023-04-05T11:56:21.405Z,38.70
2023-04-05T11:58:50.722Z,38.00
2023-04-05T12:01:22.117Z,37.90
2023-04-05T12:03:55.466Z,37.10
2023-04-05T12:06:27.391Z,36.90
2023-04-05T12:08:56.479Z,36.70
2023-04-05T12:11:27.281Z,36.30
2023-04-05T12:13:58.639Z,36.20
2023-04-05T12:16:28.425Z,36.60
2023-04-05T12:18:58.877Z,37.10
2023-04-05T12:21:29.548Z,36.50
2023-04-05T12:23:59.878Z,36.20
2023-04-05T12:26:34.170Z,36.90
2023-04-05T12:29:05.642Z,37.60
2023-04-05T12:31:39.846Z,37.10
2023-04-05T12:34:10.615Z,36.80
2023-04-05T12:36:45.322Z,37.10
2023-04-05T12:39:17.284Z,36.90
2023-04-05T12:41:46.383Z,36.60
2023-04-05T12:44:16.599Z,35.30
2023-04-05T12:46:46.865Z,34.40
2023-04-05T12:49:17.365Z,33.60
2023-04-05T12:51:49.269Z,33.50
2023-04-05T12:54:23.175Z,34.20
2023-04-05T12:56:54.323Z,34.10
2023-04-05T12:59:24.753Z,32.70
2023-04-05T13:01:53.936Z,32.70
2023-04-05T13:04:24.259Z,32.30
2023-04-05T13:06:55.809Z,32.50
2023-04-05T13:09:24.772Z,30.20
2023-04-05T13:11:53.778Z,30.10
2023-04-05T13:14:22.923Z,30.90
2023-04-05T13:16:51.931Z,30.50
2023-04-05T13:19:21.666Z,30.00
2023-04-05T13:21:50.568Z,30.40
2023-04-05T13:24:21.108Z,30.90
2023-04-05T13:26:50.424Z,30.80
2023-04-05T13:29:19.373Z,30.60
2023-04-05T13:31:48.484Z,30.50
2023-04-05T13:34:17.750Z,30.50
2023-04-05T13:36:48.442Z,31.20
2023-04-05T13:39:17.605Z,31.30
2023-04-05T13:41:48.079Z,31.10
2023-04-05T13:44:17.607Z,31.30
2023-04-05T13:46:46.822Z,30.90
2023-04-05T13:49:16.192Z,31.20
2023-04-05T13:51:45.200Z,30.60
2023-04-05T13:54:14.466Z,30.80
2023-04-05T13:56:43.698Z,30.90
2023-04-05T13:59:16.527Z,30.70
2023-04-05T14:01:45.913Z,30.90
2023-04-05T14:04:15.775Z,30.90
2023-04-05T14:06:44.882Z,31.40
2023-04-05T14:09:14.279Z,31.10
2023-04-05T14:11:43.548Z,31.30
2023-04-05T14:14:14.105Z,32.20
2023-04-05T14:16:43.302Z,31.80
2023-04-05T14:19:12.759Z,32.00
2023-04-05T14:21:42.356Z,32.00
2023-04-05T14:24:11.842Z,32.30
2023-04-05T14:26:41.528Z,32.30
2023-04-05T14:29:10.787Z,32.20
2023-04-05T14:31:42.101Z,32.20
2023-04-05T14:34:11.896Z,32.50
2023-04-05T14:36:41.505Z,33.30
2023-04-05T14:39:11.400Z,33.10
2023-04-05T14:41:41.038Z,32.70
2023-04-05T14:44:10.404Z,32.10
2023-04-05T14:46:41.234Z,31.90
2023-04-05T14:49:10.961Z,32.80
2023-04-05T14:51:40.470Z,32.70
2023-04-05T14:54:10.050Z,32.90
2023-04-05T14:56:39.404Z,32.90
2023-04-05T14:59:08.922Z,33.60
2023-04-05T15:01:38.579Z,33.40
2023-04-05T15:04:09.502Z,32.90
2023-04-05T15:06:38.885Z,32.70
2023-04-05T15:09:08.225Z,32.60
2023-04-05T15:11:39.295Z,32.60
2023-04-05T15:14:13.406Z,32.70
2023-04-05T15:16:47.721Z,32.20
2023-04-05T15:19:18.481Z,32.30
2023-04-05T15:21:47.924Z,32.20
2023-04-05T15:24:17.283Z,32.80
2023-04-05T15:26:46.694Z,33.10
2023-04-05T15:29:16.097Z,33.30
2023-04-05T15:31:45.548Z,32.90
2023-04-05T15:34:15.013Z,32.60
2023-04-05T15:36:45.617Z,32.60
2023-04-05T15:39:15.360Z,32.40
2023-04-05T15:41:45.843Z,33.20
2023-04-05T15:44:15.855Z,33.20
2023-04-05T15:46:45.705Z,33.50
2023-04-05T15:49:17.415Z,34.10
2023-04-05T15:51:48.674Z,33.60
2023-04-05T15:54:20.875Z,33.30
2023-04-05T15:56:49.951Z,33.60
2023-04-05T15:59:19.381Z,33.50
2023-04-05T16:01:48.821Z,33.50
2023-04-05T16:04:18.110Z,33.60
2023-04-05T16:06:48.774Z,34.30
2023-04-05T16:09:17.986Z,34.30
2023-04-05T16:11:47.589Z,34.00
2023-04-05T16:14:17.226Z,33.70
2023-04-05T16:16:53.555Z,33.80
2023-04-05T16:19:23.699Z,34.00
2023-04-05T16:21:54.487Z,34.00
2023-04-05T16:24:23.800Z,34.30
2023-04-05T16:26:53.351Z,34.70
2023-04-05T16:29:22.685Z,34.30
2023-04-05T16:31:52.048Z,34.00
2023-04-05T16:34:21.902Z,34.00
2023-04-05T16:36:51.288Z,34.20
2023-04-05T16:39:21.881Z,34.40
2023-04-05T16:41:50.900Z,34.40
2023-04-05T16:44:20.549Z,34.20
2023-04-05T16:46:49.740Z,34.40
2023-04-05T16:49:18.881Z,34.40
2023-04-05T16:51:48.148Z,34.60
2023-04-05T16:54:17.706Z,34.40
2023-04-05T16:56:48.541Z,34.30
2023-04-05T16:59:17.852Z,34.90
2023-04-05T17:01:47.107Z,34.20
2023-04-05T17:04:16.635Z,33.90
2023-04-05T17:06:45.730Z,34.10
2023-04-05T17:09:15.099Z,34.00
2023-04-05T17:11:44.363Z,33.90
2023-04-05T17:14:15.348Z,34.00
2023-04-05T17:16:44.633Z,34.40
2023-04-05T17:19:13.992Z,34.30
2023-04-05T17:21:45.152Z,34.00
2023-04-05T17:24:14.581Z,33.90
2023-04-05T17:26:43.901Z,33.70
2023-04-05T17:29:13.596Z,33.60
2023-04-05T17:31:44.526Z,34.30
2023-04-05T17:34:15.090Z,34.60
2023-04-05T17:36:45.821Z,34.80
2023-04-05T17:39:15.346Z,34.70
2023-04-05T17:41:46.249Z,34.60
2023-04-05T17:44:16.558Z,35.00
2023-04-05T17:46:57.338Z,35.20
2023-04-05T17:49:36.409Z,35.30
2023-04-05T17:52:08.297Z,34.90
2023-04-05T17:54:38.483Z,35.00
2023-04-05T17:57:14.892Z,34.80
2023-04-05T17:59:44.522Z,35.20
2023-04-05T18:02:15.323Z,35.00
2023-04-05T18:04:44.647Z,35.40
2023-04-05T18:07:14.004Z,34.90
2023-04-05T18:09:43.387Z,34.90
2023-04-05T18:12:12.733Z,34.90
2023-04-05T18:14:41.938Z,35.20
2023-04-05T18:17:11.547Z,34.90
2023-04-05T18:19:42.281Z,34.80
2023-04-05T18:22:11.643Z,34.80
2023-04-05T18:24:41.012Z,34.90
2023-04-05T18:27:10.681Z,34.90
2023-04-05T18:29:39.916Z,35.00
2023-04-05T18:32:09.193Z,35.10
2023-04-05T18:34:38.488Z,35.10
2023-04-05T18:37:09.143Z,35.20
2023-04-05T18:39:38.409Z,35.30
2023-04-05T18:42:08.193Z,35.40
2023-04-05T18:44:37.361Z,35.40
2023-04-05T18:47:06.682Z,35.50
2023-04-05T18:49:37.030Z,35.70
2023-04-05T18:52:06.215Z,35.90
2023-04-05T18:54:38.612Z,36.10
2023-04-05T18:57:09.512Z,35.90
2023-04-05T18:59:38.741Z,36.10
2023-04-05T19:02:08.054Z,36.40
2023-04-05T19:04:37.214Z,36.60
2023-04-05T19:07:06.408Z,36.50
2023-04-05T19:09:38.535Z,36.80
2023-04-05T19:12:08.322Z,38.10
2023-04-05T19:14:37.386Z,38.40
2023-04-05T19:17:08.685Z,38.90
2023-04-05T19:19:38.775Z,39.40
2023-04-05T19:22:10.117Z,39.80
2023-04-05T19:24:42.457Z,39.80
2023-04-05T19:27:11.623Z,40.20
2023-04-05T19:29:40.985Z,40.10
2023-04-05T19:32:10.343Z,40.30
2023-04-05T19:34:39.786Z,40.50
2023-04-05T19:37:08.874Z,40.70
2023-04-05T19:39:38.083Z,40.80
2023-04-05T19:42:08.692Z,40.90
2023-04-05T19:44:48.418Z,41.10
2023-04-05T19:47:20.479Z,41.50
2023-04-05T19:49:51.509Z,41.70
2023-04-05T19:52:40.561Z,41.90
2023-04-05T19:55:28.280Z,42.20
2023-04-05T19:57:59.499Z,42.40
2023-04-05T20:00:37.277Z,42.50
2023-04-05T20:03:28.943Z,42.70
2023-04-05T20:06:03.500Z,43.00
2023-04-05T20:08:35.015Z,43.20
2023-04-05T20:11:08.946Z,43.40
2023-04-05T20:13:46.378Z,43.40
2023-04-05T20:16:16.959Z,43.80
2023-04-05T20:18:47.459Z,43.70
2023-04-05T20:21:17.899Z,43.90
2023-04-05T20:23:47.257Z,44.00
2023-04-05T20:26:17.831Z,44.10
2023-04-05T20:28:54.329Z,44.20
2023-04-05T20:31:25.821Z,44.40
2023-04-05T20:33:56.229Z,44.30
2023-04-05T20:36:33.375Z,44.50
2023-04-05T20:39:06.260Z,43.40
2023-04-05T20:41:36.148Z,43.40
2023-04-05T20:44:07.030Z,43.70
2023-04-05T20:46:36.418Z,44.00
2023-04-05T20:49:05.966Z,44.00
2023-04-05T20:51:35.290Z,44.50
2023-04-05T20:54:04.956Z,44.60
2023-04-05T20:56:34.765Z,44.80
2023-04-05T20:59:04.073Z,45.00
2023-04-05T21:01:36.086Z,45.10
2023-04-05T21:04:07.192Z,45.50
2023-04-05T21:06:37.550Z,45.60
2023-04-05T21:09:07.307Z,45.60
2023-04-05T21:11:36.410Z,45.70
2023-04-05T21:14:05.590Z,45.80
2023-04-05T21:16:36.601Z,46.00
2023-04-05T21:19:06.244Z,46.00
2023-04-05T21:21:35.632Z,46.10
2023-04-05T21:24:05.476Z,46.10
2023-04-05T21:26:34.519Z,46.10
2023-04-05T21:29:03.851Z,46.40
2023-04-05T21:31:33.245Z,46.70
2023-04-05T21:34:03.892Z,46.60
2023-04-05T21:36:32.969Z,46.80
2023-04-05T21:39:02.248Z,46.90
2023-04-05T21:41:31.567Z,47.10
2023-04-05T21:44:00.974Z,47.10
2023-04-05T21:46:30.404Z,47.00
2023-04-05T21:48:59.957Z,46.70
2023-04-05T21:51:30.675Z,46.60
2023-04-05T21:53:59.992Z,46.40
2023-04-05T21:56:29.370Z,45.90
2023-04-05T21:58:58.797Z,45.60
2023-04-05T22:01:28.215Z,45.40
2023-04-05T22:03:57.633Z,45.50
2023-04-05T22:06:26.929Z,45.50
2023-04-05T22:08:57.642Z,45.70
2023-04-05T22:11:27.558Z,45.40
2023-04-05T22:13:57.208Z,45.40
2023-04-05T22:16:26.682Z,45.40
2023-04-05T22:18:55.966Z,45.40
2023-04-05T22:21:25.134Z,45.60
2023-04-05T22:23:54.274Z,45.50
2023-04-05T22:26:24.887Z,45.40
2023-04-05T22:28:54.042Z,45.40
2023-04-05T22:31:23.281Z,45.40
2023-04-05T22:33:52.425Z,45.40
2023-04-05T22:36:21.812Z,45.40
2023-04-05T22:38:53.599Z,45.40
2023-04-05T22:41:24.972Z,45.30
2023-04-05T22:43:54.262Z,45.30
2023-04-05T22:46:23.543Z,46.30
2023-04-05T22:48:52.719Z,45.60
2023-04-05T22:51:21.895Z,46.10
2023-04-05T22:53:51.144Z,45.50
2023-04-05T22:56:21.654Z,45.30
2023-04-05T22:58:52.457Z,45.30
2023-04-05T23:01:21.851Z,45.40
2023-04-05T23:03:51.125Z,45.50
2023-04-05T23:06:20.399Z,45.70
2023-04-05T23:08:49.910Z,45.70
2023-04-05T23:11:19.129Z,45.70
2023-04-05T23:13:49.722Z,45.70
2023-04-05T23:16:20.517Z,46.00
2023-04-05T23:18:50.087Z,46.20
2023-04-05T23:21:19.485Z,46.20
2023-04-05T23:23:48.677Z,46.30
2023-04-05T23:26:17.916Z,46.20
2023-04-05T23:28:47.111Z,46.30
2023-04-05T23:31:16.469Z,46.30
2023-04-05T23:33:47.262Z,46.50
2023-04-05T23:36:16.868Z,46.40
2023-04-05T23:38:46.266Z,46.50
2023-04-05T23:41:15.657Z,46.70
2023-04-05T23:43:45.992Z,46.70
2023-04-05T23:46:15.538Z,46.90
2023-04-05T23:48:46.552Z,47.00
2023-04-05T23:51:16.281Z,47.30
2023-04-05T23:53:45.601Z,47.20
2023-04-05T23:56:15.511Z,47.40
2023-04-05T23:58:45.713Z,47.60
